Time;durP1;ratioP1;P1;durP2;ratioP2;P2;SDS_P1;SDS_P2;PMS_P1;PMS_P2;Temp;Humidity;BMP_temperature;BMP_pressure;BME280_temperature;BME280_humidity;BME280_pressure;Samples;Min_cycle;Max_cycle;Signal;HPM_P1;HPM_P2
2022/06/08 00:02:11;;;;;;;24.95;10.15;;;;;;;14.42;100.00;100642.25;1749847;82;20900;-43
2022/06/08 00:04:40;;;;;;;22.98;11.08;;;;;;;14.37;100.00;100647.16;1749972;82;21026;-43
2022/06/08 00:07:06;;;;;;;30.77;13.68;;;;;;;14.35;100.00;100646.36;1749872;82;21453;-43
2022/06/08 00:09:33;;;;;;;30.50;13.22;;;;;;;14.30;100.00;100645.66;1749814;81;21222;-43
2022/06/08 00:12:03;;;;;;;30.15;13.90;;;;;;;14.24;100.00;100645.82;1749911;82;20916;-43
2022/06/08 00:14:30;;;;;;;34.80;15.23;;;;;;;14.19;100.00;100646.42;1722585;82;21507;-43
2022/06/08 00:16:58;;;;;;;40.67;15.50;;;;;;;14.07;100.00;100647.64;1749886;81;21024;-43
2022/06/08 00:19:25;;;;;;;29.98;14.63;;;;;;;13.98;100.00;100646.16;1749867;82;21378;-43
2022/06/08 00:21:53;;;;;;;36.10;14.30;;;;;;;13.88;100.00;100646.87;1722549;82;21226;-43
2022/06/08 00:24:19;;;;;;;32.65;14.50;;;;;;;13.78;100.00;100642.84;1749831;82;21518;-43
2022/06/08 00:26:46;;;;;;;24.70;12.63;;;;;;;13.71;100.00;100644.77;1749739;82;21435;-43
2022/06/08 00:29:13;;;;;;;21.77;10.60;;;;;;;13.63;100.00;100636.34;1749671;82;20893;-43
2022/06/08 00:31:41;;;;;;;27.22;11.53;;;;;;;13.56;100.00;100633.52;1749945;82;20936;-43
2022/06/08 00:34:08;;;;;;;26.73;11.28;;;;;;;13.51;100.00;100642.73;1749241;82;21299;-44
2022/06/08 00:36:34;;;;;;;17.87;9.53;;;;;;;13.47;100.00;100644.55;1730210;82;20988;-43
2022/06/08 00:39:02;;;;;;;20.70;10.80;;;;;;;13.43;100.00;100641.64;1749946;82;21015;-43
2022/06/08 00:41:47;;;;;;;18.15;8.15;;;;;;;13.39;100.00;100643.02;1749844;82;20933;-43
2022/06/08 00:44:28;;;;;;;16.37;8.53;;;;;;;13.39;100.00;100639.12;1749919;82;20920;-43
2022/06/08 00:46:54;;;;;;;17.50;8.20;;;;;;;13.40;100.00;100642.99;1750108;82;21143;-43
2022/06/08 00:49:37;;;;;;;14.75;8.60;;;;;;;13.34;100.00;100633.61;1722542;82;20925;-43
2022/06/08 00:52:06;;;;;;;13.10;7.15;;;;;;;13.32;100.00;100637.16;1750065;81;20976;-43
2022/06/08 00:54:36;;;;;;;10.60;5.53;;;;;;;13.29;100.00;100647.64;1749986;82;20861;-43
2022/06/08 00:57:08;;;;;;;16.05;6.45;;;;;;;13.29;100.00;100643.28;1741780;81;21487;-43
2022/06/08 00:59:37;;;;;;;8.83;5.58;;;;;;;13.32;100.00;100638.45;1735193;82;21404;-43
2022/06/08 01:02:04;;;;;;;10.48;6.83;;;;;;;13.37;100.00;100636.58;1715406;82;21423;-43
2022/06/08 01:04:31;;;;;;;25.23;12.82;;;;;;;13.37;100.00;100636.58;1715187;82;20893;-43
2022/06/08 01:06:59;;;;;;;124.18;56.05;;;;;;;13.34;100.00;100632.77;1736052;81;20968;-43
2022/06/08 01:09:35;;;;;;;74.85;37.98;;;;;;;13.36;100.00;100629.68;1736034;82;20995;-43
2022/06/08 01:12:06;;;;;;;55.38;28.98;;;;;;;13.38;100.00;100630.48;1715030;82;21021;-43
2022/06/08 01:14:35;;;;;;;40.67;22.50;;;;;;;13.38;100.00;100627.89;1735794;82;20945;-43
2022/06/08 01:17:07;;;;;;;22.10;10.13;;;;;;;13.37;100.00;100633.98;1736038;82;20909;-43
2022/06/08 01:19:36;;;;;;;29.20;15.08;;;;;;;13.39;100.00;100636.09;1736048;82;20960;-43
2022/06/08 01:22:05;;;;;;;33.55;19.12;;;;;;;13.42;100.00;100634.70;1736046;82;20873;-43
2022/06/08 01:24:36;;;;;;;38.08;20.05;;;;;;;13.44;100.00;100634.24;1735091;82;21079;-43
2022/06/08 01:27:27;;;;;;;37.70;19.48;;;;;;;13.42;100.00;100633.41;1735924;81;20873;-43
2022/06/08 01:30:12;;;;;;;63.98;33.20;;;;;;;13.44;100.00;100630.34;1736185;82;21498;-43
2022/06/08 01:33:17;;;;;;;121.17;56.42;;;;;;;13.51;100.00;100624.53;1717582;82;21407;-43
2022/06/08 01:36:14;;;;;;;129.68;60.65;;;;;;;13.59;100.00;100626.45;1736140;81;20924;-43
2022/06/08 01:39:05;;;;;;;123.65;61.42;;;;;;;13.56;100.00;100622.65;1735891;82;21108;-43
2022/06/08 01:41:53;;;;;;;37.50;22.15;;;;;;;13.48;100.00;100617.66;1735897;82;21436;-44
2022/06/08 01:44:25;;;;;;;32.00;16.60;;;;;;;13.44;100.00;100625.61;1736020;81;20969;-43
2022/06/08 01:47:12;;;;;;;31.33;13.75;;;;;;;13.36;100.00;100627.08;1735926;82;21435;-43
2022/06/08 01:49:57;;;;;;;10.65;7.33;;;;;;;13.28;100.00;100626.45;1727276;82;20944;-43
2022/06/08 01:52:52;;;;;;;17.05;7.40;;;;;;;13.21;100.00;100622.69;1710795;82;21050;-43
2022/06/08 01:55:31;;;;;;;9.20;5.67;;;;;;;13.17;100.00;100620.23;1735888;82;20996;-43
2022/06/08 01:58:18;;;;;;;12.82;6.30;;;;;;;13.10;100.00;100622.12;1741890;81;20933;-43
2022/06/08 02:00:49;;;;;;;7.80;4.28;;;;;;;13.05;100.00;100624.00;1744104;82;20936;-44
2022/06/08 02:03:33;;;;;;;7.97;4.30;;;;;;;13.02;100.00;100622.79;1744224;82;21494;-43
2022/06/08 02:06:14;;;;;;;6.80;4.08;;;;;;;13.00;100.00;100625.84;1744221;82;21212;-43
2022/06/08 02:08:52;;;;;;;6.95;5.10;;;;;;;12.97;100.00;100630.70;1743972;82;21545;-43
2022/06/08 02:11:28;;;;;;;19.27;9.13;;;;;;;12.99;100.00;100631.94;1744176;82;20861;-43
2022/06/08 02:14:00;;;;;;;39.73;18.12;;;;;;;13.02;100.00;100627.52;1744171;82;21490;-43
2022/06/08 02:16:45;;;;;;;24.92;12.68;;;;;;;13.05;100.00;100624.00;1744184;82;21011;-43
2022/06/08 02:19:19;;;;;;;37.65;15.28;;;;;;;13.08;100.00;100627.82;1743911;82;21078;-43
2022/06/08 02:21:55;;;;;;;13.98;7.67;;;;;;;13.12;100.00;100628.14;1744233;82;20975;-43
2022/06/08 02:24:30;;;;;;;16.10;8.25;;;;;;;13.15;100.00;100632.41;1743972;82;20948;-43
2022/06/08 02:27:08;;;;;;;8.50;5.05;;;;;;;13.17;100.00;100632.77;1743917;82;20992;-43
2022/06/08 02:29:40;;;;;;;12.50;4.28;;;;;;;13.22;100.00;100634.78;1743785;82;20877;-43
2022/06/08 02:35:08;;;;;;;10.90;3.90;;;;;;;13.29;100.00;100635.95;1744343;82;21466;-44
2022/06/08 02:37:35;;;;;;;10.90;3.92;;;;;;;13.31;100.00;100636.75;1743962;82;20980;-43
2022/06/08 02:40:26;;;;;;;7.65;3.80;;;;;;;13.35;100.00;100640.51;1715119;82;20976;-43
2022/06/08 02:42:57;;;;;;;4.87;3.58;;;;;;;13.40;100.00;100645.59;1744288;82;20959;-44
2022/06/08 02:45:27;;;;;;;5.00;3.35;;;;;;;13.49;100.00;100636.73;1744058;81;21766;-43
2022/06/08 02:47:59;;;;;;;3.77;3.30;;;;;;;13.58;100.00;100642.95;1744415;82;20988;-43
2022/06/08 02:50:29;;;;;;;3.98;3.58;;;;;;;13.68;100.00;100641.42;1716017;82;20948;-43
2022/06/08 02:53:20;;;;;;;9.90;5.40;;;;;;;13.76;100.00;100648.08;1744037;82;21446;-43
2022/06/08 02:56:10;;;;;;;7.40;4.87;;;;;;;13.87;100.00;100646.47;1742848;82;21466;-43
2022/06/08 02:58:42;;;;;;;18.65;4.90;;;;;;;14.02;100.00;100642.59;1729079;81;22093;-43
2022/06/08 03:01:19;;;;;;;7.87;5.30;;;;;;;14.16;100.00;100641.31;1757705;81;21473;-44
2022/06/08 03:03:52;;;;;;;10.10;4.80;;;;;;;14.26;100.00;100637.52;1757730;81;20923;-43
2022/06/08 03:06:25;;;;;;;6.50;4.70;;;;;;;14.39;100.00;100641.89;1757679;81;20976;-43
2022/06/08 03:08:58;;;;;;;8.85;4.80;;;;;;;14.54;100.00;100648.39;1757610;81;20920;-44
2022/06/08 03:11:29;;;;;;;12.90;4.90;;;;;;;14.64;100.00;100644.58;1757751;81;21482;-44
2022/06/08 03:14:00;;;;;;;8.70;4.85;;;;;;;14.75;100.00;100644.70;1757698;81;20833;-43
2022/06/08 03:16:35;;;;;;;7.05;4.17;;;;;;;14.85;100.00;100642.64;1729936;81;20976;-44
2022/06/08 03:19:04;;;;;;;11.30;5.35;;;;;;;14.98;100.00;100646.55;1757445;81;20924;-43
2022/06/08 03:21:32;;;;;;;9.60;4.83;;;;;;;15.11;100.00;100638.30;1757708;81;20887;-43
2022/06/08 03:23:59;;;;;;;11.68;4.83;;;;;;;15.21;100.00;100636.63;1757549;81;21197;-43
2022/06/08 03:26:27;;;;;;;10.18;4.40;;;;;;;15.30;100.00;100635.45;1757971;80;20992;-43
2022/06/08 03:28:54;;;;;;;6.58;4.40;;;;;;;15.40;100.00;100634.67;1757743;81;20896;-43
2022/06/08 03:31:21;;;;;;;12.43;4.80;;;;;;;15.51;100.00;100639.04;1757634;81;20940;-43
2022/06/08 03:33:49;;;;;;;12.85;5.72;;;;;;;15.62;100.00;100629.98;1757692;80;21001;-43
2022/06/08 03:36:16;;;;;;;14.38;5.50;;;;;;;15.76;100.00;100631.62;1757563;81;21044;-44
2022/06/08 03:38:43;;;;;;;12.33;5.10;;;;;;;15.96;100.00;100637.88;1757900;81;20991;-43
2022/06/08 03:41:11;;;;;;;9.40;4.67;;;;;;;16.19;100.00;100639.63;1757540;81;20864;-43
2022/06/08 03:43:39;;;;;;;19.23;5.22;;;;;;;16.49;100.00;100635.83;1757587;81;21454;-43
2022/06/08 03:46:07;;;;;;;10.72;3.52;;;;;;;16.84;100.00;100636.61;1757546;81;20880;-43
2022/06/08 03:48:33;;;;;;;9.18;4.03;;;;;;;17.18;100.00;100638.67;1757779;80;21142;-43
2022/06/08 03:51:00;;;;;;;7.95;3.80;;;;;;;17.52;100.00;100641.10;1757635;80;20971;-44
2022/06/08 03:53:39;;;;;;;5.72;3.75;;;;;;;17.83;100.00;100640.66;1757706;81;20940;-43
2022/06/08 03:56:11;;;;;;;12.78;3.40;;;;;;;18.18;100.00;100642.11;1746243;81;20991;-43
2022/06/08 03:58:38;;;;;;;9.93;3.40;;;;;;;18.56;100.00;100639.88;1739670;81;20882;-44
2022/06/08 04:01:07;;;;;;;8.95;3.42;;;;;;;18.83;100.00;100644.22;1735385;82;21219;-44
2022/06/08 04:03:34;;;;;;;8.95;2.72;;;;;;;19.14;100.00;100643.14;1735864;82;20921;-44
2022/06/08 04:06:03;;;;;;;15.45;3.58;;;;;;;19.46;100.00;100640.15;1735818;82;20972;-44
2022/06/08 04:08:31;;;;;;;10.10;3.35;;;;;;;19.81;100.00;100638.70;1711716;82;20949;-44
2022/06/08 04:10:59;;;;;;;16.62;3.60;;;;;;;20.14;100.00;100647.48;1735917;82;20924;-44
2022/06/08 04:13:27;;;;;;;10.08;3.02;;;;;;;20.51;100.00;100643.23;1735867;82;21106;-44
2022/06/08 04:15:56;;;;;;;6.35;2.52;;;;;;;20.84;100.00;100643.58;1735856;82;20853;-44
2022/06/08 04:18:25;;;;;;;9.48;2.72;;;;;;;21.16;100.00;100652.66;1735089;82;20961;-44
2022/06/08 04:20:55;;;;;;;10.38;2.67;;;;;;;21.44;95.81;100648.34;1735792;82;20899;-44
2022/06/08 04:23:25;;;;;;;8.25;3.00;;;;;;;21.72;92.50;100650.61;1736243;82;20988;-44
2022/06/08 04:25:53;;;;;;;8.05;2.90;;;;;;;21.96;89.07;100656.59;1735904;81;21103;-44
2022/06/08 04:28:22;;;;;;;25.15;3.00;;;;;;;22.21;87.25;100659.81;1735989;82;20977;-44
2022/06/08 04:30:50;;;;;;;8.08;2.75;;;;;;;22.50;84.35;100662.86;1736140;82;20989;-44
2022/06/08 04:33:17;;;;;;;5.72;2.72;;;;;;;22.83;81.49;100665.52;1736279;82;21455;-44
2022/06/08 04:35:45;;;;;;;9.53;2.70;;;;;;;23.13;78.87;100667.05;1736009;82;20917;-44
2022/06/08 04:38:12;;;;;;;11.45;3.08;;;;;;;23.34;75.03;100661.25;1735956;81;21073;-44
2022/06/08 04:40:40;;;;;;;11.22;2.62;;;;;;;23.50;72.73;100664.53;1735980;82;20977;-44
2022/06/08 04:43:09;;;;;;;10.82;2.60;;;;;;;23.64;71.58;100664.88;1736074;82;20942;-44
2022/06/08 04:45:37;;;;;;;7.62;2.55;;;;;;;23.80;68.72;100669.92;1735992;82;20858;-44
2022/06/08 04:48:08;;;;;;;9.45;2.60;;;;;;;23.88;68.28;100668.55;1736034;82;20850;-44
2022/06/08 04:50:36;;;;;;;14.85;2.80;;;;;;;24.01;68.06;100662.77;1736051;82;21245;-45
2022/06/08 04:53:03;;;;;;;9.98;3.08;;;;;;;24.24;66.85;100668.18;1736244;82;21472;-44
2022/06/08 04:55:30;;;;;;;10.13;3.47;;;;;;;24.41;63.72;100674.05;1736059;82;21327;-45
2022/06/08 04:57:58;;;;;;;16.35;4.28;;;;;;;24.61;63.35;100673.38;1739422;81;20917;-43
2022/06/08 05:00:25;;;;;;;13.10;4.22;;;;;;;24.81;61.14;100667.97;1744151;81;20948;-44
2022/06/08 05:02:53;;;;;;;15.10;4.30;;;;;;;25.04;61.47;100668.03;1744024;81;21156;-44
2022/06/08 05:05:26;;;;;;;18.73;5.17;;;;;;;25.20;61.00;100665.50;1743292;82;20901;-43
2022/06/08 05:07:54;;;;;;;14.20;5.08;;;;;;;25.36;58.91;100660.71;1744262;81;21466;-44
2022/06/08 05:10:22;;;;;;;15.38;6.35;;;;;;;25.52;59.39;100664.85;1744103;81;20991;-44
2022/06/08 05:12:49;;;;;;;16.73;4.58;;;;;;;25.73;57.82;100660.97;1715039;82;21027;-44
2022/06/08 05:15:20;;;;;;;13.75;5.22;;;;;;;26.01;57.84;100660.08;1743967;81;21471;-45
2022/06/08 05:17:47;;;;;;;13.25;4.80;;;;;;;26.27;57.34;100659.80;1743555;82;20988;-44
2022/06/08 05:20:16;;;;;;;12.63;5.00;;;;;;;26.53;55.49;100660.78;1744217;81;20944;-43
2022/06/08 05:22:44;;;;;;;15.20;5.30;;;;;;;26.62;54.24;100656.02;1744308;82;20928;-43
2022/06/08 05:25:16;;;;;;;16.02;5.33;;;;;;;26.47;54.30;100659.97;1744056;82;20929;-44
2022/06/08 05:27:43;;;;;;;19.42;6.78;;;;;;;26.36;54.27;100653.72;1743319;82;21146;-45
2022/06/08 05:30:12;;;;;;;20.15;7.62;;;;;;;26.45;55.52;100661.91;1744083;82;21475;-45
2022/06/08 05:32:39;;;;;;;27.22;7.00;;;;;;;26.50;55.00;100653.08;1744103;81;21490;-44
2022/06/08 05:35:08;;;;;;;29.20;8.90;;;;;;;26.54;54.63;100658.48;1743973;81;20853;-44
2022/06/08 05:37:35;;;;;;;30.62;7.65;;;;;;;26.66;55.45;100656.62;1714805;82;21375;-44
2022/06/08 05:40:04;;;;;;;30.82;8.68;;;;;;;26.95;53.88;100658.65;1744172;82;21249;-44
2022/06/08 05:42:32;;;;;;;18.25;7.53;;;;;;;27.21;53.08;100657.77;1744102;82;20952;-44
2022/06/08 05:44:59;;;;;;;24.30;6.90;;;;;;;27.42;52.62;100652.89;1744070;82;20956;-44
2022/06/08 05:47:26;;;;;;;27.87;7.20;;;;;;;27.65;52.70;100644.72;1744208;81;20980;-44
2022/06/08 05:49:54;;;;;;;23.85;6.70;;;;;;;27.86;49.69;100649.12;1744201;82;20980;-44
2022/06/08 05:52:21;;;;;;;26.02;7.72;;;;;;;27.74;49.34;100649.72;1744107;82;21148;-44
2022/06/08 05:54:48;;;;;;;22.60;7.30;;;;;;;27.75;49.15;100646.94;1744016;82;20877;-44
2022/06/08 05:57:15;;;;;;;26.33;7.92;;;;;;;27.73;49.07;100646.23;1744000;82;20920;-44
2022/06/08 05:59:43;;;;;;;31.33;9.25;;;;;;;27.71;48.80;100645.53;1741392;81;20961;-44
2022/06/08 06:02:13;;;;;;;33.20;8.53;;;;;;;27.74;48.65;100647.91;1741473;82;20979;-44
2022/06/08 06:04:40;;;;;;;41.20;8.25;;;;;;;27.99;48.58;100651.05;1741421;82;21987;-45
2022/06/08 06:07:07;;;;;;;33.15;8.28;;;;;;;28.17;48.61;100650.41;1741412;82;20915;-44
2022/06/08 06:09:35;;;;;;;34.92;8.48;;;;;;;28.18;47.46;100648.09;1712726;82;20885;-44
2022/06/08 06:12:02;;;;;;;25.32;8.33;;;;;;;28.13;48.31;100648.47;1741385;82;20880;-44
2022/06/08 06:14:32;;;;;;;34.55;8.45;;;;;;;28.24;49.31;100647.53;1740738;81;20983;-44
2022/06/08 06:17:00;;;;;;;33.55;8.45;;;;;;;28.12;48.23;100641.47;1741350;82;21026;-44
2022/06/08 06:19:27;;;;;;;31.70;8.50;;;;;;;28.09;47.72;100644.41;1741575;82;20967;-44
2022/06/08 06:22:08;;;;;;;29.40;8.00;;;;;;;28.16;47.70;100644.70;1693212;82;21434;-44
2022/06/08 06:24:37;;;;;;;18.42;8.15;;;;;;;28.31;47.67;100646.48;1712956;82;20884;-44
2022/06/08 06:27:22;;;;;;;32.43;9.10;;;;;;;28.28;47.05;100641.42;1741749;81;20975;-44
2022/06/08 06:29:51;;;;;;;17.67;7.70;;;;;;;28.32;46.28;100645.00;1741278;81;21083;-45
2022/06/08 06:32:32;;;;;;;16.12;6.28;;;;;;;28.47;45.27;100640.59;1738319;82;20967;-45
2022/06/08 06:34:59;;;;;;;21.50;6.37;;;;;;;28.67;44.12;100639.60;1741290;82;21548;-45
2022/06/08 06:37:28;;;;;;;24.12;7.30;;;;;;;28.89;41.54;100641.59;1741485;82;20987;-44
2022/06/08 06:39:55;;;;;;;22.55;6.70;;;;;;;28.86;42.62;100640.55;1741434;82;20892;-45
2022/06/08 06:42:28;;;;;;;22.58;7.33;;;;;;;28.84;42.90;100633.20;1740916;82;21002;-44
2022/06/08 06:45:15;;;;;;;11.60;6.25;;;;;;;28.86;41.76;100636.56;1741333;82;20923;-44
2022/06/08 06:47:45;;;;;;;19.23;6.83;;;;;;;28.62;41.92;100641.83;1741393;82;20931;-45
2022/06/08 06:50:15;;;;;;;22.82;6.90;;;;;;;28.57;40.48;100644.59;1740166;82;20968;-45
2022/06/08 06:52:44;;;;;;;18.95;6.58;;;;;;;28.57;40.31;100646.74;1741525;82;20947;-44
2022/06/08 06:55:25;;;;;;;14.50;5.85;;;;;;;28.77;40.81;100642.22;1741353;82;21159;-44
2022/06/08 06:57:54;;;;;;;15.15;6.15;;;;;;;28.99;41.37;100642.91;1740534;81;20923;-44
2022/06/08 07:00:24;;;;;;;14.50;5.55;;;;;;;29.14;41.30;100642.45;1735792;82;20929;-44
2022/06/08 07:02:51;;;;;;;23.55;5.78;;;;;;;29.25;39.46;100637.78;1735882;82;20968;-44
2022/06/08 07:05:25;;;;;;;11.22;5.17;;;;;;;29.28;39.18;100635.30;1735936;82;20854;-44
2022/06/08 07:07:52;;;;;;;16.77;5.85;;;;;;;29.15;40.74;100634.80;1736266;82;21265;-44
2022/06/08 07:10:20;;;;;;;13.53;4.12;;;;;;;29.02;41.54;100635.95;1735857;82;20962;-44
2022/06/08 07:12:48;;;;;;;10.55;3.87;;;;;;;29.09;40.61;100630.89;1715439;82;20933;-44
2022/06/08 07:15:18;;;;;;;8.38;4.35;;;;;;;29.12;40.75;100630.59;1735809;82;20967;-44
2022/06/08 07:17:45;;;;;;;9.00;4.12;;;;;;;29.24;40.12;100632.11;1735964;82;21024;-44
2022/06/08 07:51:44;;;;;;;16.17;2.30;;;;;;;31.36;35.68;100607.28;1780635;79;21793;-42
2022/06/08 07:54:12;;;;;;;7.92;1.55;;;;;;;31.44;33.63;100614.50;1759163;81;20896;-43
2022/06/08 07:56:39;;;;;;;5.87;1.60;;;;;;;31.35;31.61;100611.81;1759214;81;21233;-42
2022/06/08 07:59:06;;;;;;;4.80;1.10;;;;;;;31.24;32.96;100606.25;1759142;81;20888;-42
2022/06/08 08:01:33;;;;;;;11.43;1.70;;;;;;;31.10;31.79;100609.48;1759012;81;21428;-42
2022/06/08 08:04:01;;;;;;;7.33;1.77;;;;;;;31.15;32.86;100612.51;1759219;81;20991;-42
2022/06/08 08:06:28;;;;;;;5.95;1.17;;;;;;;31.24;32.82;100610.75;1759173;81;20978;-42
2022/06/08 08:08:55;;;;;;;11.63;1.45;;;;;;;31.36;32.36;100602.80;1759279;81;21258;-43
2022/06/08 08:11:26;;;;;;;3.83;1.37;;;;;;;31.42;31.94;100609.82;1759089;81;20956;-42
2022/06/08 08:13:53;;;;;;;3.55;1.20;;;;;;;31.52;32.03;100602.00;1759214;81;21063;-43
2022/06/08 08:16:21;;;;;;;8.90;1.62;;;;;;;31.67;29.26;100596.86;1759162;81;21042;-43
2022/06/08 08:18:48;;;;;;;6.70;3.25;;;;;;;31.89;27.90;100605.77;1759301;81;20928;-44
2022/06/08 08:21:15;;;;;;;10.75;1.62;;;;;;;32.00;29.49;100596.59;1759008;81;22190;-43
2022/06/08 08:23:42;;;;;;;4.47;1.32;;;;;;;32.27;27.71;100599.94;1759178;81;20983;-43
2022/06/08 08:26:10;;;;;;;4.47;1.70;;;;;;;32.29;28.03;100600.13;1759111;81;20904;-44
2022/06/08 08:28:38;;;;;;;10.23;1.92;;;;;;;32.11;29.11;100590.41;1759033;81;21496;-43
2022/06/08 08:31:05;;;;;;;13.93;1.67;;;;;;;32.11;28.44;100601.11;1759286;81;20903;-44
2022/06/08 08:33:32;;;;;;;9.28;1.22;;;;;;;32.05;28.97;100592.91;1759278;81;21170;-42
2022/06/08 08:35:59;;;;;;;9.05;1.42;;;;;;;32.05;28.32;100590.23;1759151;81;20967;-43
2022/06/08 08:38:26;;;;;;;11.15;1.10;;;;;;;32.16;27.70;100590.41;1759178;81;20880;-43
2022/06/08 08:40:57;;;;;;;8.33;0.85;;;;;;;32.02;27.28;100584.73;1758153;81;20944;-44
2022/06/08 08:43:27;;;;;;;0.90;0.65;;;;;;;31.84;28.03;100586.72;1723092;81;20931;-44
2022/06/08 08:46:15;;;;;;;11.53;1.15;;;;;;;31.63;27.11;100577.28;1757712;81;21086;-42
2022/06/08 08:48:47;;;;;;;3.60;1.05;;;;;;;31.60;28.10;100586.97;1757780;81;20857;-43
2022/06/08 08:51:24;;;;;;;3.92;0.70;;;;;;;31.88;27.66;100584.03;1750009;80;20984;-43
2022/06/08 08:54:18;;;;;;;5.28;0.93;;;;;;;32.02;28.86;100582.05;1747101;82;21536;-43
2022/06/08 08:56:45;;;;;;;2.35;0.90;;;;;;;32.18;28.47;100580.36;1747325;82;21269;-43
2022/06/08 08:59:14;;;;;;;5.53;1.02;;;;;;;32.33;26.86;100582.74;1747147;82;21134;-43
2022/06/08 09:01:44;;;;;;;5.72;0.98;;;;;;;32.26;27.39;100580.38;1747054;82;20889;-43
2022/06/08 09:04:25;;;;;;;20.48;1.47;;;;;;;32.15;27.28;100576.20;1747063;82;20905;-43
2022/06/08 09:06:51;;;;;;;1.45;1.10;;;;;;;31.96;25.97;100577.38;1747162;82;20901;-42
2022/06/08 09:09:26;;;;;;;11.33;1.60;;;;;;;31.76;27.66;100579.02;1746935;82;20858;-43
2022/06/08 09:11:52;;;;;;;7.67;1.52;;;;;;;31.71;26.98;100571.97;1746880;82;21081;-43
2022/06/08 09:14:24;;;;;;;5.70;1.55;;;;;;;31.71;28.97;100569.78;1747136;82;21083;-43
2022/06/08 09:17:16;;;;;;;3.40;1.12;;;;;;;31.78;28.54;100569.48;1747089;82;20928;-43
2022/06/08 09:19:48;;;;;;;1.37;1.22;;;;;;;31.79;28.26;100572.48;1746816;82;20964;-44
2022/06/08 09:22:24;;;;;;;4.83;1.60;;;;;;;32.02;26.55;100568.67;1747448;82;20861;-43
2022/06/08 09:25:02;;;;;;;3.02;1.65;;;;;;;31.98;27.36;100564.66;1746990;82;21212;-42
2022/06/08 09:27:38;;;;;;;4.97;1.90;;;;;;;31.97;29.18;100565.67;1746888;82;20972;-44
2022/06/08 09:30:16;;;;;;;8.58;2.62;;;;;;;32.24;28.80;100564.99;1746013;82;20897;-44
2022/06/08 09:32:56;;;;;;;5.15;1.95;;;;;;;32.48;27.73;100563.33;1747003;82;20936;-43
2022/06/08 09:35:39;;;;;;;5.42;2.02;;;;;;;32.47;28.09;100565.67;1747154;82;20984;-43
2022/06/08 09:38:13;;;;;;;2.95;2.25;;;;;;;32.33;28.08;100557.31;1746951;82;21039;-44
2022/06/08 09:41:00;;;;;;;2.40;2.20;;;;;;;32.41;27.49;100560.48;1747036;82;20951;-44
2022/06/08 09:43:52;;;;;;;4.45;2.50;;;;;;;32.33;28.12;100561.81;1746918;82;20921;-42
2022/06/08 09:53:19;;;;;;;7.72;2.35;;;;;;;32.47;27.31;100557.64;1747194;82;21079;-43
2022/06/08 09:56:05;;;;;;;2.45;2.30;;;;;;;32.60;28.84;100551.23;1687286;85;20896;-43
2022/06/08 09:59:02;;;;;;;4.25;2.22;;;;;;;32.65;27.80;100551.55;1687041;85;21058;-42
2022/06/08 10:01:55;;;;;;;12.43;2.55;;;;;;;32.62;28.86;100551.89;1732716;82;21494;-43
2022/06/08 10:04:41;;;;;;;7.00;2.20;;;;;;;32.50;27.84;100548.73;1746808;82;21518;-43
2022/06/08 10:07:22;;;;;;;6.80;1.98;;;;;;;32.47;28.86;100553.10;1747196;82;21283;-42
2022/06/08 10:10:28;;;;;;;8.53;2.58;;;;;;;32.46;27.66;100547.91;1746975;81;20885;-44
2022/06/08 10:13:10;;;;;;;5.05;2.50;;;;;;;32.39;27.35;100549.93;1747127;82;20881;-42
2022/06/08 10:15:45;;;;;;;7.22;3.12;;;;;;;32.31;29.11;100543.23;1747039;82;20983;-43
2022/06/08 10:18:37;;;;;;;3.62;2.80;;;;;;;32.34;29.33;100544.25;1747010;82;20874;-43
2022/06/08 10:21:17;;;;;;;2.65;2.40;;;;;;;32.59;29.44;100546.88;1746955;81;22102;-43
2022/06/08 10:23:53;;;;;;;6.92;2.70;;;;;;;32.87;28.29;100542.44;1747049;82;21411;-43
2022/06/08 10:26:36;;;;;;;3.17;2.50;;;;;;;33.07;27.74;100544.74;1746949;82;21012;-43
2022/06/08 10:29:28;;;;;;;2.98;2.50;;;;;;;33.14;26.46;100541.68;1746975;82;20952;-42
2022/06/08 10:32:15;;;;;;;3.58;2.90;;;;;;;33.20;27.00;100534.27;1747100;82;21454;-44
2022/06/08 10:34:42;;;;;;;5.33;2.47;;;;;;;33.10;27.18;100543.90;1717713;82;21468;-44
2022/06/08 10:37:20;;;;;;;22.02;2.75;;;;;;;33.11;26.24;100536.67;1746946;82;20905;-44
2022/06/08 10:39:47;;;;;;;5.08;2.45;;;;;;;33.17;27.27;100535.15;1747012;82;21534;-43
2022/06/08 10:42:39;;;;;;;5.25;2.35;;;;;;;33.14;26.80;100534.98;1746884;82;20912;-42
2022/06/08 10:45:30;;;;;;;2.98;2.20;;;;;;;33.10;26.14;100535.86;1747080;82;20988;-43
2022/06/08 10:48:18;;;;;;;9.88;3.10;;;;;;;33.21;24.87;100518.52;1747115;82;21785;-44
2022/06/08 10:50:48;;;;;;;9.08;2.50;;;;;;;33.27;24.84;100517.50;1748325;80;21019;-43
2022/06/08 10:56:36;;;;;;;7.87;2.37;;;;;;;32.96;26.57;100521.31;1757047;81;20948;-43
2022/06/08 10:59:13;;;;;;;6.83;2.50;;;;;;;32.75;27.29;100521.88;1725006;81;20924;-42
2022/06/08 11:01:57;;;;;;;6.22;2.45;;;;;;;32.81;25.79;100517.69;1756965;81;21212;-44
2022/06/08 11:04:35;;;;;;;11.30;2.67;;;;;;;32.83;25.90;100521.84;1757181;81;20952;-42
2022/06/08 11:07:17;;;;;;;5.97;2.72;;;;;;;32.70;25.81;100519.38;1757218;80;20948;-43
2022/06/08 11:09:54;;;;;;;17.82;3.20;;;;;;;32.38;25.89;100523.34;1757005;81;20895;-42
2022/06/08 11:12:33;;;;;;;8.95;2.92;;;;;;;32.27;25.48;100513.79;1757032;81;20948;-42
2022/06/08 11:15:11;;;;;;;25.70;3.87;;;;;;;32.04;25.68;100513.14;1757489;81;21118;-42
2022/06/08 11:17:52;;;;;;;7.70;2.85;;;;;;;31.93;27.04;100512.13;1756256;81;21426;-42
2022/06/08 11:20:30;;;;;;;5.00;2.20;;;;;;;32.12;27.94;100516.32;1757151;81;20975;-42
2022/06/08 11:23:17;;;;;;;9.48;2.77;;;;;;;32.43;27.19;100515.63;1756955;81;20987;-43
2022/06/08 11:26:07;;;;;;;4.03;2.30;;;;;;;32.61;26.03;100508.70;1730970;81;20975;-43
2022/06/08 11:28:43;;;;;;;6.22;2.30;;;;;;;32.73;27.17;100512.37;1756983;80;21161;-43
2022/06/08 11:31:33;;;;;;;11.15;3.08;;;;;;;32.75;25.35;100514.37;1757206;81;20936;-43
2022/06/08 11:34:44;;;;;;;14.73;2.52;;;;;;;32.67;26.70;100509.34;1757149;81;20868;-44
2022/06/08 11:37:41;;;;;;;7.10;2.55;;;;;;;32.80;27.08;100514.68;1756959;81;21038;-44
2022/06/08 11:40:27;;;;;;;28.85;3.90;;;;;;;32.88;25.26;100508.48;1756780;81;20909;-44
2022/06/08 11:43:15;;;;;;;9.90;3.35;;;;;;;32.80;27.79;100507.98;1757233;81;21253;-44
2022/06/08 11:45:52;;;;;;;17.27;3.55;;;;;;;32.92;24.45;100498.56;1723528;81;21031;-44
2022/06/08 11:48:21;;;;;;;5.25;2.92;;;;;;;33.07;24.31;100501.86;1757253;81;20968;-44
2022/06/08 11:50:53;;;;;;;5.17;2.77;;;;;;;32.95;24.84;100499.55;1756519;81;20936;-43
2022/06/08 11:53:38;;;;;;;3.37;2.85;;;;;;;32.87;24.94;100500.91;1745842;82;20881;-43
2022/06/08 11:56:29;;;;;;;6.83;2.77;;;;;;;32.80;26.47;100498.60;1746546;82;21804;-43
2022/06/08 11:59:01;;;;;;;5.58;2.52;;;;;;;32.98;26.05;100496.22;1746110;82;20893;-43
2022/06/08 12:01:42;;;;;;;13.43;2.80;;;;;;;33.11;27.12;100495.13;1745977;82;20908;-42
2022/06/08 12:04:16;;;;;;;8.45;2.50;;;;;;;33.07;27.47;100495.97;1746061;82;20940;-43
2022/06/08 12:06:44;;;;;;;4.33;2.52;;;;;;;33.28;27.04;100496.38;1746375;82;20925;-43
2022/06/08 12:09:26;;;;;;;3.10;2.90;;;;;;;33.47;25.71;100491.94;1746153;81;20842;-43
2022/06/08 12:11:57;;;;;;;6.45;3.05;;;;;;;33.64;24.86;100489.11;1746206;82;20921;-43
2022/06/08 12:14:34;;;;;;;2.87;2.55;;;;;;;33.82;24.17;100485.61;1745938;82;20960;-43
2022/06/08 12:17:18;;;;;;;4.12;2.27;;;;;;;33.92;25.50;100489.38;1745677;82;20921;-43
2022/06/08 12:19:57;;;;;;;4.42;2.80;;;;;;;33.71;24.31;100479.31;1746275;82;20949;-43
2022/06/08 12:22:32;;;;;;;4.87;2.85;;;;;;;33.49;25.75;100478.33;1746181;81;23302;-43
2022/06/08 12:25:21;;;;;;;;;;;;;;;33.59;27.30;100480.77;1748795;82;20996;-43
2022/06/08 12:28:12;;;;;;;6.53;2.92;;;;;;;33.80;25.70;100472.88;1746312;82;20407;-43
2022/06/08 12:30:48;;;;;;;5.47;2.95;;;;;;;33.93;27.45;100470.08;1743214;82;21501;-43
2022/06/08 12:33:18;;;;;;;;;;;;;;;34.10;24.77;100468.94;1749062;82;20965;-43